SAS1208 ESSA-EDDH
Flight info
| Callsign | SAS1208 |
|---|---|
| Flight time | 1h 7m |
| Altitude | 36000 |
| Route | NOSLI N850 ABAMA DCT GIMRU T503 MICOS N850 BOGMU BOGMU3P |
| Aircraft | A321/M-SDE3FGHIRWY/LB1 |
Departure
| Time | 2026-04-22 13:43 |
|---|---|
| Airport | Stockholm-Arlanda Airport (ESSA) |
Arrival
| Time | 2026-04-22 14:50 |
|---|---|
| Airport | Hamburg Helmut Schmidt Airport (EDDH) |
| Time | Latitude | Longitude | Altitude | Speed | Heading |
|---|---|---|---|---|---|
| 2026-04-22 13:16 | 59.65291 | 17.93556 | 112 ft | 0 kts | 109° |
| 2026-04-22 13:31 | 59.65297 | 17.93520 | 122 ft | 4 kts | 109° |
| 2026-04-22 13:32 | 59.65304 | 17.93480 | 108 ft | 4 kts | 108° |
| 2026-04-22 13:32 | 59.65310 | 17.93448 | 111 ft | 4 kts | 124° |
| 2026-04-22 13:32 | 59.65322 | 17.93414 | 110 ft | 4 kts | 94° |
| 2026-04-22 13:32 | 59.65313 | 17.93375 | 109 ft | 4 kts | 48° |
| 2026-04-22 13:33 | 59.65322 | 17.93387 | 108 ft | 4 kts | 35° |
| 2026-04-22 13:33 | 59.65346 | 17.93397 | 110 ft | 4 kts | 359° |
| 2026-04-22 13:33 | 59.65366 | 17.93389 | 110 ft | 0 kts | 346° |
| 2026-04-22 13:35 | 59.65366 | 17.93388 | 110 ft | 0 kts | 346° |
| 2026-04-22 13:35 | 59.65375 | 17.93384 | 110 ft | 2 kts | 346° |
| 2026-04-22 13:35 | 59.65394 | 17.93375 | 112 ft | 3 kts | 346° |
| 2026-04-22 13:36 | 59.65421 | 17.93361 | 112 ft | 5 kts | 346° |
| 2026-04-22 13:36 | 59.65459 | 17.93342 | 112 ft | 6 kts | 346° |
| 2026-04-22 13:36 | 59.65505 | 17.93331 | 112 ft | 6 kts | 342° |
| 2026-04-22 13:36 | 59.65525 | 17.93251 | 112 ft | 8 kts | 268° |
| 2026-04-22 13:37 | 59.65512 | 17.93137 | 112 ft | 9 kts | 256° |
| 2026-04-22 13:37 | 59.65494 | 17.93006 | 112 ft | 11 kts | 254° |
| 2026-04-22 13:37 | 59.65458 | 17.92809 | 110 ft | 12 kts | 248° |
| 2026-04-22 13:37 | 59.65430 | 17.92705 | 111 ft | 13 kts | 237° |
| 2026-04-22 13:38 | 59.65367 | 17.92555 | 111 ft | 15 kts | 221° |
| 2026-04-22 13:38 | 59.65172 | 17.92374 | 112 ft | 16 kts | 190° |
| 2026-04-22 13:38 | 59.65057 | 17.92332 | 112 ft | 17 kts | 190° |
| 2026-04-22 13:39 | 59.64936 | 17.92288 | 112 ft | 18 kts | 191° |
| 2026-04-22 13:39 | 59.64810 | 17.92242 | 112 ft | 19 kts | 190° |
| 2026-04-22 13:39 | 59.64678 | 17.92195 | 112 ft | 20 kts | 190° |
| 2026-04-22 13:39 | 59.64542 | 17.92147 | 112 ft | 20 kts | 190° |
| 2026-04-22 13:40 | 59.64405 | 17.92096 | 114 ft | 20 kts | 191° |
| 2026-04-22 13:40 | 59.64267 | 17.92046 | 115 ft | 20 kts | 189° |
| 2026-04-22 13:40 | 59.64145 | 17.91973 | 111 ft | 16 kts | 237° |
| 2026-04-22 13:40 | 59.64078 | 17.91811 | 114 ft | 17 kts | 196° |
| 2026-04-22 13:41 | 59.63960 | 17.91769 | 111 ft | 19 kts | 190° |
| 2026-04-22 13:41 | 59.63829 | 17.91684 | 106 ft | 21 kts | 215° |
| 2026-04-22 13:41 | 59.63729 | 17.91478 | 108 ft | 19 kts | 265° |
| 2026-04-22 13:41 | 59.63787 | 17.91344 | 110 ft | 14 kts | 5° |
| 2026-04-22 13:42 | 59.63862 | 17.91370 | 109 ft | 11 kts | 10° |
| 2026-04-22 13:42 | 59.64002 | 17.91419 | 109 ft | 47 kts | 10° |
| 2026-04-22 13:42 | 59.64547 | 17.91624 | 111 ft | 107 kts | 10° |
| 2026-04-22 13:42 | 59.65451 | 17.91941 | 109 ft | 154 kts | 9° |
| 2026-04-22 13:43 | 59.66534 | 17.92323 | 714 ft | 156 kts | 6° |
| 2026-04-22 13:43 | 59.67604 | 17.92724 | 1439 ft | 160 kts | 5° |
| 2026-04-22 13:43 | 59.68740 | 17.92480 | 1735 ft | 173 kts | 330° |
| 2026-04-22 13:43 | 59.69471 | 17.90509 | 2084 ft | 193 kts | 284° |
| 2026-04-22 13:44 | 59.69403 | 17.87823 | 2672 ft | 201 kts | 268° |
| 2026-04-22 13:44 | 59.69233 | 17.85018 | 3310 ft | 204 kts | 268° |
| 2026-04-22 13:44 | 59.69068 | 17.82220 | 3881 ft | 206 kts | 269° |
| 2026-04-22 13:44 | 59.68907 | 17.79415 | 4485 ft | 209 kts | 271° |
| 2026-04-22 13:45 | 59.68621 | 17.76534 | 4939 ft | 224 kts | 260° |
| 2026-04-22 13:45 | 59.68131 | 17.73406 | 4984 ft | 253 kts | 259° |
| 2026-04-22 13:45 | 59.67580 | 17.69965 | 5191 ft | 268 kts | 257° |
| 2026-04-22 13:45 | 59.66685 | 17.66657 | 5923 ft | 282 kts | 234° |
| 2026-04-22 13:46 | 59.65100 | 17.64246 | 6668 ft | 296 kts | 208° |
| 2026-04-22 13:46 | 59.63125 | 17.62902 | 7360 ft | 303 kts | 201° |
| 2026-04-22 13:46 | 59.61097 | 17.61664 | 8037 ft | 308 kts | 201° |
| 2026-04-22 13:46 | 59.59030 | 17.60411 | 8695 ft | 313 kts | 202° |
| 2026-04-22 13:47 | 59.56932 | 17.59139 | 9354 ft | 318 kts | 202° |
| 2026-04-22 13:47 | 59.54803 | 17.57847 | 9974 ft | 323 kts | 201° |
| 2026-04-22 13:47 | 59.52639 | 17.56531 | 10570 ft | 327 kts | 201° |
| 2026-04-22 13:47 | 59.50406 | 17.55125 | 10803 ft | 347 kts | 202° |
| 2026-04-22 13:48 | 59.48056 | 17.53538 | 10961 ft | 366 kts | 202° |
| 2026-04-22 13:48 | 59.45623 | 17.51843 | 11407 ft | 374 kts | 202° |
| 2026-04-22 13:48 | 59.43186 | 17.50131 | 11960 ft | 378 kts | 202° |
| 2026-04-22 13:48 | 59.40700 | 17.48393 | 12548 ft | 382 kts | 201° |
| 2026-04-22 13:49 | 59.38180 | 17.46653 | 13141 ft | 385 kts | 201° |
| 2026-04-22 13:49 | 59.35637 | 17.44921 | 13713 ft | 389 kts | 200° |
| 2026-04-22 13:49 | 59.33070 | 17.43184 | 14270 ft | 392 kts | 200° |
| 2026-04-22 13:49 | 59.30485 | 17.41437 | 14831 ft | 393 kts | 200° |
| 2026-04-22 13:50 | 59.27903 | 17.39690 | 15448 ft | 392 kts | 200° |
| 2026-04-22 13:50 | 59.25326 | 17.37943 | 16087 ft | 392 kts | 200° |
| 2026-04-22 13:50 | 59.22741 | 17.36189 | 16653 ft | 394 kts | 200° |
| 2026-04-22 13:50 | 59.20140 | 17.34430 | 17209 ft | 397 kts | 201° |
| 2026-04-22 13:51 | 59.17519 | 17.32663 | 17746 ft | 399 kts | 201° |
| 2026-04-22 13:51 | 59.14891 | 17.30896 | 18271 ft | 401 kts | 201° |
| 2026-04-22 13:51 | 59.12240 | 17.29119 | 18720 ft | 404 kts | 201° |
| 2026-04-22 13:51 | 59.09580 | 17.27310 | 19135 ft | 406 kts | 204° |
| 2026-04-22 13:52 | 59.07033 | 17.24906 | 19545 ft | 407 kts | 214° |
| 2026-04-22 13:52 | 59.04731 | 17.21714 | 19954 ft | 407 kts | 223° |
| 2026-04-22 13:52 | 59.02583 | 17.18197 | 20354 ft | 411 kts | 223° |
| 2026-04-22 13:52 | 59.00382 | 17.14616 | 20733 ft | 415 kts | 223° |
| 2026-04-22 13:53 | 58.98157 | 17.11029 | 21120 ft | 418 kts | 223° |
| 2026-04-22 13:53 | 58.95904 | 17.07419 | 21519 ft | 422 kts | 222° |
| 2026-04-22 13:53 | 58.93631 | 17.03791 | 21900 ft | 425 kts | 222° |
| 2026-04-22 13:53 | 58.91344 | 17.00144 | 22286 ft | 428 kts | 222° |
| 2026-04-22 13:54 | 58.89034 | 16.96460 | 22664 ft | 431 kts | 222° |
| 2026-04-22 13:54 | 58.86710 | 16.92757 | 23035 ft | 434 kts | 222° |
| 2026-04-22 13:54 | 58.84376 | 16.89036 | 23401 ft | 437 kts | 222° |
| 2026-04-22 13:54 | 58.82019 | 16.85276 | 23738 ft | 440 kts | 222° |
| 2026-04-22 13:55 | 58.79648 | 16.81506 | 24043 ft | 443 kts | 222° |
| 2026-04-22 13:55 | 58.77258 | 16.77719 | 24343 ft | 446 kts | 221° |
| 2026-04-22 13:55 | 58.74854 | 16.73921 | 24650 ft | 448 kts | 221° |
| 2026-04-22 13:55 | 58.72431 | 16.70098 | 24955 ft | 451 kts | 221° |
| 2026-04-22 13:56 | 58.70021 | 16.66300 | 25242 ft | 454 kts | 221° |
| 2026-04-22 13:56 | 58.67567 | 16.62438 | 25554 ft | 457 kts | 221° |
| 2026-04-22 13:56 | 58.65103 | 16.58570 | 25849 ft | 459 kts | 221° |
| 2026-04-22 13:56 | 58.62620 | 16.54686 | 26156 ft | 462 kts | 221° |
| 2026-04-22 13:57 | 58.60119 | 16.50786 | 26440 ft | 465 kts | 221° |
| 2026-04-22 13:57 | 58.57605 | 16.46864 | 26712 ft | 467 kts | 220° |
| 2026-04-22 13:57 | 58.55079 | 16.42926 | 27012 ft | 469 kts | 220° |
| 2026-04-22 13:57 | 58.52541 | 16.38975 | 27280 ft | 472 kts | 220° |
| 2026-04-22 13:58 | 58.49982 | 16.35002 | 27555 ft | 475 kts | 220° |
| 2026-04-22 13:58 | 58.47409 | 16.31018 | 27837 ft | 477 kts | 219° |
| 2026-04-22 13:58 | 58.44821 | 16.27022 | 28118 ft | 480 kts | 219° |
| 2026-04-22 13:58 | 58.42213 | 16.23006 | 28392 ft | 482 kts | 219° |
| 2026-04-22 13:59 | 58.39598 | 16.18984 | 28665 ft | 485 kts | 219° |
| 2026-04-22 13:59 | 58.36963 | 16.14938 | 28934 ft | 488 kts | 219° |
| 2026-04-22 13:59 | 58.34312 | 16.10869 | 29215 ft | 490 kts | 219° |
| 2026-04-22 13:59 | 58.31645 | 16.06783 | 29480 ft | 493 kts | 219° |
| 2026-04-22 14:00 | 58.28967 | 16.02689 | 29762 ft | 495 kts | 218° |
| 2026-04-22 14:00 | 58.26276 | 15.98587 | 30002 ft | 497 kts | 218° |
| 2026-04-22 14:00 | 58.23605 | 15.94524 | 30259 ft | 500 kts | 218° |
| 2026-04-22 14:00 | 58.20884 | 15.90392 | 30482 ft | 502 kts | 218° |
| 2026-04-22 14:01 | 58.18155 | 15.86251 | 30706 ft | 503 kts | 218° |
| 2026-04-22 14:01 | 58.15413 | 15.82100 | 30939 ft | 504 kts | 218° |
| 2026-04-22 14:01 | 58.12667 | 15.77962 | 31160 ft | 505 kts | 217° |
| 2026-04-22 14:01 | 58.09909 | 15.73815 | 31373 ft | 507 kts | 217° |
| 2026-04-22 14:02 | 58.07147 | 15.69662 | 31579 ft | 507 kts | 217° |
| 2026-04-22 14:02 | 58.04384 | 15.65513 | 31890 ft | 506 kts | 217° |
| 2026-04-22 14:02 | 58.01621 | 15.61381 | 32166 ft | 505 kts | 217° |
| 2026-04-22 14:02 | 57.98869 | 15.57283 | 32461 ft | 504 kts | 216° |
| 2026-04-22 14:03 | 57.96093 | 15.53247 | 32735 ft | 503 kts | 215° |
| 2026-04-22 14:03 | 57.93328 | 15.49361 | 33003 ft | 503 kts | 214° |
| 2026-04-22 14:03 | 57.90505 | 15.45489 | 33269 ft | 502 kts | 213° |
| 2026-04-22 14:03 | 57.87675 | 15.41653 | 33545 ft | 501 kts | 213° |
| 2026-04-22 14:04 | 57.84850 | 15.37837 | 33813 ft | 500 kts | 213° |
| 2026-04-22 14:04 | 57.81999 | 15.33971 | 34085 ft | 498 kts | 213° |
| 2026-04-22 14:04 | 57.79236 | 15.30199 | 34342 ft | 497 kts | 213° |
| 2026-04-22 14:04 | 57.76444 | 15.26371 | 34574 ft | 497 kts | 213° |
| 2026-04-22 14:05 | 57.73658 | 15.22544 | 34777 ft | 496 kts | 213° |
| 2026-04-22 14:05 | 57.70871 | 15.18723 | 34980 ft | 496 kts | 213° |
| 2026-04-22 14:05 | 57.65299 | 15.11118 | 35391 ft | 496 kts | 213° |
| 2026-04-22 14:06 | 57.62513 | 15.07336 | 35600 ft | 495 kts | 213° |
| 2026-04-22 14:06 | 57.59720 | 15.03561 | 35798 ft | 495 kts | 213° |
| 2026-04-22 14:06 | 57.56930 | 14.99804 | 36024 ft | 495 kts | 213° |
| 2026-04-22 14:06 | 57.54138 | 14.96050 | 36158 ft | 494 kts | 212° |
| 2026-04-22 14:07 | 57.51353 | 14.92305 | 36178 ft | 493 kts | 212° |
| 2026-04-22 14:07 | 57.45836 | 14.84904 | 36174 ft | 492 kts | 212° |
| 2026-04-22 14:08 | 57.40245 | 14.77423 | 36172 ft | 492 kts | 212° |
| 2026-04-22 14:08 | 57.34690 | 14.70027 | 36186 ft | 492 kts | 212° |
| 2026-04-22 14:09 | 57.29132 | 14.62662 | 36185 ft | 491 kts | 212° |
| 2026-04-22 14:09 | 57.23570 | 14.55308 | 36193 ft | 492 kts | 212° |
| 2026-04-22 14:10 | 57.18004 | 14.47969 | 36200 ft | 492 kts | 212° |
| 2026-04-22 14:10 | 57.12425 | 14.40662 | 36206 ft | 492 kts | 212° |
| 2026-04-22 14:11 | 57.06834 | 14.33355 | 36218 ft | 492 kts | 211° |
| 2026-04-22 14:11 | 57.01251 | 14.26073 | 36207 ft | 492 kts | 211° |
| 2026-04-22 14:12 | 56.95698 | 14.18874 | 36217 ft | 492 kts | 211° |
| 2026-04-22 14:12 | 56.90111 | 14.11662 | 36217 ft | 491 kts | 211° |
| 2026-04-22 14:13 | 56.84525 | 14.04474 | 36237 ft | 491 kts | 211° |
| 2026-04-22 14:13 | 56.78932 | 13.97302 | 36228 ft | 491 kts | 210° |
| 2026-04-22 14:14 | 56.73330 | 13.90151 | 36219 ft | 491 kts | 210° |
| 2026-04-22 14:14 | 56.67720 | 13.83003 | 36232 ft | 491 kts | 210° |
| 2026-04-22 14:15 | 56.62114 | 13.75894 | 36232 ft | 491 kts | 210° |
| 2026-04-22 14:15 | 56.56500 | 13.68816 | 36247 ft | 491 kts | 210° |
| 2026-04-22 14:16 | 56.50922 | 13.61779 | 36243 ft | 491 kts | 210° |
| 2026-04-22 14:16 | 56.45305 | 13.54730 | 36242 ft | 491 kts | 210° |
| 2026-04-22 14:17 | 56.39676 | 13.47704 | 36246 ft | 491 kts | 210° |
| 2026-04-22 14:17 | 56.34050 | 13.40700 | 36264 ft | 491 kts | 209° |
| 2026-04-22 14:18 | 56.28423 | 13.33710 | 36281 ft | 491 kts | 209° |
| 2026-04-22 14:18 | 56.22828 | 13.26802 | 36274 ft | 490 kts | 209° |
| 2026-04-22 14:19 | 56.17192 | 13.19872 | 36267 ft | 490 kts | 209° |
| 2026-04-22 14:19 | 56.11561 | 13.12959 | 36281 ft | 490 kts | 208° |
| 2026-04-22 14:20 | 56.03128 | 13.02639 | 36299 ft | 489 kts | 208° |
| 2026-04-22 14:20 | 55.97502 | 12.95796 | 36298 ft | 489 kts | 208° |
| 2026-04-22 14:21 | 55.89104 | 12.85617 | 36321 ft | 489 kts | 208° |
| 2026-04-22 14:22 | 55.80657 | 12.75469 | 36308 ft | 488 kts | 208° |
| 2026-04-22 14:23 | 55.72202 | 12.65346 | 36300 ft | 488 kts | 208° |
| 2026-04-22 14:23 | 55.67486 | 12.59708 | 36298 ft | 488 kts | 208° |
| 2026-04-22 14:24 | 55.61888 | 12.53046 | 36298 ft | 487 kts | 208° |
| 2026-04-22 14:24 | 55.56257 | 12.46393 | 36296 ft | 487 kts | 208° |
| 2026-04-22 14:25 | 55.50626 | 12.39748 | 36305 ft | 487 kts | 208° |
| 2026-04-22 14:25 | 55.44990 | 12.33097 | 36306 ft | 487 kts | 208° |
| 2026-04-22 14:26 | 55.39353 | 12.26472 | 36292 ft | 487 kts | 207° |
| 2026-04-22 14:26 | 55.33705 | 12.19877 | 36313 ft | 487 kts | 207° |
| 2026-04-22 14:27 | 55.28066 | 12.13324 | 36314 ft | 486 kts | 207° |
| 2026-04-22 14:27 | 55.22420 | 12.06787 | 36318 ft | 486 kts | 207° |
| 2026-04-22 14:28 | 55.16785 | 12.00265 | 36311 ft | 485 kts | 207° |
| 2026-04-22 14:28 | 55.13958 | 11.96995 | 35672 ft | 488 kts | 207° |
| 2026-04-22 14:28 | 55.11136 | 11.93732 | 35149 ft | 486 kts | 206° |
| 2026-04-22 14:28 | 55.08318 | 11.90482 | 34618 ft | 483 kts | 205° |
| 2026-04-22 14:29 | 55.05549 | 11.87305 | 34052 ft | 481 kts | 205° |
| 2026-04-22 14:29 | 55.02759 | 11.84110 | 33524 ft | 477 kts | 205° |
| 2026-04-22 14:29 | 54.99997 | 11.80951 | 33005 ft | 474 kts | 205° |
| 2026-04-22 14:29 | 54.97263 | 11.77832 | 32463 ft | 470 kts | 205° |
| 2026-04-22 14:30 | 54.94533 | 11.74725 | 31973 ft | 467 kts | 206° |
| 2026-04-22 14:30 | 54.91826 | 11.71649 | 31420 ft | 464 kts | 207° |
| 2026-04-22 14:30 | 54.89138 | 11.68594 | 30930 ft | 460 kts | 207° |
| 2026-04-22 14:30 | 54.86465 | 11.65560 | 30413 ft | 456 kts | 207° |
| 2026-04-22 14:31 | 54.83822 | 11.62562 | 29863 ft | 451 kts | 207° |
| 2026-04-22 14:31 | 54.81214 | 11.59609 | 29387 ft | 444 kts | 207° |
| 2026-04-22 14:31 | 54.78640 | 11.56698 | 28919 ft | 438 kts | 208° |
| 2026-04-22 14:31 | 54.76102 | 11.53837 | 28460 ft | 432 kts | 208° |
| 2026-04-22 14:32 | 54.73596 | 11.51022 | 28015 ft | 426 kts | 208° |
| 2026-04-22 14:32 | 54.71125 | 11.48247 | 27602 ft | 420 kts | 209° |
| 2026-04-22 14:32 | 54.68688 | 11.45515 | 27162 ft | 415 kts | 210° |
| 2026-04-22 14:32 | 54.66283 | 11.42824 | 26744 ft | 409 kts | 210° |
| 2026-04-22 14:33 | 54.63907 | 11.40167 | 26341 ft | 404 kts | 210° |
| 2026-04-22 14:33 | 54.61588 | 11.37578 | 25918 ft | 400 kts | 210° |
| 2026-04-22 14:33 | 54.59263 | 11.34988 | 25490 ft | 396 kts | 210° |
| 2026-04-22 14:33 | 54.56964 | 11.32426 | 25087 ft | 391 kts | 211° |
| 2026-04-22 14:34 | 54.54694 | 11.29864 | 24695 ft | 387 kts | 212° |
| 2026-04-22 14:34 | 54.52488 | 11.27245 | 24312 ft | 383 kts | 213° |
| 2026-04-22 14:34 | 54.50326 | 11.24594 | 23906 ft | 380 kts | 214° |
| 2026-04-22 14:34 | 54.48197 | 11.21950 | 23481 ft | 375 kts | 214° |
| 2026-04-22 14:35 | 54.46095 | 11.19339 | 23073 ft | 370 kts | 214° |
| 2026-04-22 14:35 | 54.44017 | 11.16780 | 22673 ft | 365 kts | 214° |
| 2026-04-22 14:35 | 54.41961 | 11.14268 | 22287 ft | 360 kts | 214° |
| 2026-04-22 14:35 | 54.39928 | 11.11799 | 21893 ft | 356 kts | 214° |
| 2026-04-22 14:36 | 54.37912 | 11.09368 | 21508 ft | 352 kts | 214° |
| 2026-04-22 14:36 | 54.35901 | 11.06955 | 21155 ft | 353 kts | 214° |
| 2026-04-22 14:36 | 54.33902 | 11.04557 | 20768 ft | 349 kts | 214° |
| 2026-04-22 14:36 | 54.31912 | 11.02177 | 20124 ft | 350 kts | 213° |
| 2026-04-22 14:37 | 54.29907 | 10.99813 | 19212 ft | 349 kts | 213° |
| 2026-04-22 14:37 | 54.27903 | 10.97478 | 18280 ft | 348 kts | 213° |
| 2026-04-22 14:37 | 54.25904 | 10.95163 | 17281 ft | 345 kts | 213° |
| 2026-04-22 14:37 | 54.23946 | 10.92902 | 16353 ft | 343 kts | 213° |
| 2026-04-22 14:38 | 54.21981 | 10.90632 | 15428 ft | 339 kts | 214° |
| 2026-04-22 14:38 | 54.20034 | 10.88383 | 14545 ft | 336 kts | 214° |
| 2026-04-22 14:38 | 54.18105 | 10.86155 | 13630 ft | 332 kts | 214° |
| 2026-04-22 14:38 | 54.16196 | 10.83946 | 12717 ft | 333 kts | 215° |
| 2026-04-22 14:39 | 54.14265 | 10.81712 | 12133 ft | 335 kts | 215° |
| 2026-04-22 14:39 | 54.12345 | 10.79501 | 11729 ft | 330 kts | 215° |
| 2026-04-22 14:39 | 54.10454 | 10.77324 | 11343 ft | 326 kts | 215° |
| 2026-04-22 14:40 | 54.06805 | 10.73124 | 10831 ft | 309 kts | 216° |
| 2026-04-22 14:40 | 54.05028 | 10.71079 | 10441 ft | 307 kts | 216° |
| 2026-04-22 14:40 | 54.03262 | 10.69050 | 10041 ft | 306 kts | 216° |
| 2026-04-22 14:40 | 54.01505 | 10.67037 | 9615 ft | 303 kts | 216° |
| 2026-04-22 14:41 | 53.99761 | 10.65038 | 9248 ft | 300 kts | 216° |
| 2026-04-22 14:41 | 53.98056 | 10.63081 | 8823 ft | 299 kts | 216° |
| 2026-04-22 14:41 | 53.96313 | 10.61089 | 8456 ft | 296 kts | 215° |
| 2026-04-22 14:41 | 53.94623 | 10.59161 | 8033 ft | 295 kts | 215° |
| 2026-04-22 14:42 | 53.92924 | 10.57227 | 7633 ft | 294 kts | 215° |
| 2026-04-22 14:42 | 53.91233 | 10.55309 | 7293 ft | 291 kts | 216° |
| 2026-04-22 14:42 | 53.89711 | 10.53094 | 6935 ft | 287 kts | 230° |
| 2026-04-22 14:42 | 53.88445 | 10.50521 | 6611 ft | 282 kts | 233° |
| 2026-04-22 14:43 | 53.87207 | 10.47954 | 6229 ft | 281 kts | 233° |
| 2026-04-22 14:43 | 53.85930 | 10.45453 | 5909 ft | 279 kts | 229° |
| 2026-04-22 14:43 | 53.84644 | 10.43014 | 5617 ft | 274 kts | 232° |
| 2026-04-22 14:43 | 53.83452 | 10.40573 | 5498 ft | 263 kts | 233° |
| 2026-04-22 14:44 | 53.82314 | 10.38206 | 5361 ft | 254 kts | 233° |
| 2026-04-22 14:44 | 53.81208 | 10.35925 | 5261 ft | 244 kts | 233° |
| 2026-04-22 14:44 | 53.80160 | 10.33773 | 5158 ft | 230 kts | 233° |
| 2026-04-22 14:44 | 53.79151 | 10.31705 | 4876 ft | 226 kts | 233° |
| 2026-04-22 14:45 | 53.78161 | 10.29676 | 4575 ft | 221 kts | 234° |
| 2026-04-22 14:45 | 53.77195 | 10.27684 | 4302 ft | 217 kts | 234° |
| 2026-04-22 14:45 | 53.76239 | 10.25728 | 3997 ft | 214 kts | 235° |
| 2026-04-22 14:45 | 53.75308 | 10.23820 | 3719 ft | 212 kts | 235° |
| 2026-04-22 14:46 | 53.74375 | 10.21918 | 3421 ft | 209 kts | 234° |
| 2026-04-22 14:46 | 53.73456 | 10.20030 | 3133 ft | 207 kts | 234° |
| 2026-04-22 14:46 | 53.72544 | 10.18166 | 2854 ft | 204 kts | 234° |
| 2026-04-22 14:46 | 53.71645 | 10.16334 | 2570 ft | 201 kts | 235° |
| 2026-04-22 14:47 | 53.70773 | 10.14548 | 2341 ft | 192 kts | 234° |
| 2026-04-22 14:47 | 53.69972 | 10.12925 | 2147 ft | 169 kts | 236° |
| 2026-04-22 14:47 | 53.69244 | 10.11446 | 1807 ft | 159 kts | 236° |
| 2026-04-22 14:47 | 53.68559 | 10.10048 | 1602 ft | 150 kts | 236° |
| 2026-04-22 14:48 | 53.67897 | 10.08691 | 1382 ft | 148 kts | 235° |
| 2026-04-22 14:48 | 53.67238 | 10.07353 | 1206 ft | 147 kts | 236° |
| 2026-04-22 14:48 | 53.66586 | 10.06025 | 1016 ft | 146 kts | 234° |
| 2026-04-22 14:48 | 53.65938 | 10.04713 | 799 ft | 145 kts | 234° |
| 2026-04-22 14:49 | 53.65294 | 10.03401 | 653 ft | 143 kts | 237° |
| 2026-04-22 14:49 | 53.64658 | 10.02115 | 432 ft | 144 kts | 238° |
| 2026-04-22 14:49 | 53.64023 | 10.00824 | 241 ft | 147 kts | 234° |
| 2026-04-22 14:49 | 53.63370 | 9.99520 | 54 ft | 141 kts | 233° |
| 2026-04-22 14:50 | 53.62814 | 9.98361 | 44 ft | 116 kts | 231° |
| 2026-04-22 14:50 | 53.62407 | 9.97540 | 40 ft | 60 kts | 231° |
| 2026-04-22 14:50 | 53.62243 | 9.97392 | 42 ft | 20 kts | 157° |
| 2026-04-22 14:50 | 53.62181 | 9.97550 | 47 ft | 16 kts | 83° |
| 2026-04-22 14:51 | 53.62243 | 9.97712 | 47 ft | 17 kts | 50° |
| 2026-04-22 14:51 | 53.62323 | 9.97874 | 47 ft | 19 kts | 50° |
| 2026-04-22 14:51 | 53.62387 | 9.98003 | 47 ft | 7 kts | 50° |
| 2026-04-22 14:51 | 53.62426 | 9.98082 | 47 ft | 11 kts | 52° |
| 2026-04-22 14:52 | 53.62462 | 9.98217 | 47 ft | 15 kts | 76° |
| 2026-04-22 14:52 | 53.62485 | 9.98408 | 47 ft | 19 kts | 79° |
| 2026-04-22 14:52 | 53.62512 | 9.98643 | 46 ft | 22 kts | 79° |
| 2026-04-22 14:52 | 53.62541 | 9.98902 | 47 ft | 23 kts | 79° |
| 2026-04-22 14:53 | 53.62573 | 9.99173 | 47 ft | 24 kts | 78° |
| 2026-04-22 14:53 | 53.62601 | 9.99437 | 47 ft | 23 kts | 78° |
| 2026-04-22 14:53 | 53.62634 | 9.99704 | 47 ft | 23 kts | 79° |
| 2026-04-22 14:53 | 53.62626 | 9.99942 | 45 ft | 21 kts | 137° |
| 2026-04-22 14:54 | 53.62553 | 10.00042 | 47 ft | 20 kts | 121° |